createdAt,value
2018-03-29T00:00:12.456Z,4.70
2018-03-29T00:01:12.446Z,5.10
2018-03-29T00:02:12.434Z,4.50
2018-03-29T00:03:12.425Z,4.50
2018-03-29T00:04:12.413Z,4.80
2018-03-29T00:05:12.404Z,4.70
2018-03-29T00:06:12.393Z,5.30
2018-03-29T00:07:12.382Z,4.60
2018-03-29T00:08:12.368Z,5.00
2018-03-29T00:09:12.361Z,4.30
2018-03-29T00:10:12.348Z,4.40
2018-03-29T00:11:12.335Z,5.00
2018-03-29T00:12:12.327Z,4.70
2018-03-29T00:13:12.327Z,4.30
2018-03-29T00:14:12.302Z,4.10
2018-03-29T00:15:12.289Z,4.10
2018-03-29T00:16:12.279Z,4.20
2018-03-29T00:17:12.268Z,4.70
2018-03-29T00:18:12.262Z,4.50
2018-03-29T00:19:12.247Z,4.60
2018-03-29T00:20:12.231Z,4.30
2018-03-29T00:21:12.228Z,4.60
2018-03-29T00:22:12.208Z,4.40
2018-03-29T00:23:12.196Z,4.60
2018-03-29T00:24:12.191Z,4.90
2018-03-29T00:25:12.181Z,4.80
2018-03-29T00:26:12.162Z,4.70
2018-03-29T00:27:12.156Z,4.40
2018-03-29T00:28:12.139Z,4.90
2018-03-29T00:29:12.138Z,4.40
2018-03-29T00:30:12.119Z,4.70
2018-03-29T00:31:12.110Z,4.60
2018-03-29T00:32:12.098Z,5.30
2018-03-29T00:33:12.087Z,4.70
2018-03-29T00:34:12.083Z,5.20
2018-03-29T00:35:12.065Z,5.00
2018-03-29T00:36:12.052Z,5.00
2018-03-29T00:37:12.042Z,5.00
2018-03-29T00:38:12.031Z,5.10
2018-03-29T00:39:12.019Z,5.10
2018-03-29T00:40:12.003Z,5.10
2018-03-29T00:41:11.993Z,4.90
2018-03-29T00:42:11.984Z,5.10
2018-03-29T00:43:11.977Z,5.00
2018-03-29T00:44:11.960Z,5.50
2018-03-29T00:45:11.947Z,4.90
2018-03-29T00:46:11.941Z,5.60
2018-03-29T00:47:11.924Z,5.00
2018-03-29T00:48:11.913Z,5.20
2018-03-29T00:49:11.911Z,4.80
2018-03-29T00:50:11.897Z,5.40
2018-03-29T00:51:11.882Z,5.40
2018-03-29T00:52:11.875Z,5.40
2018-03-29T00:53:11.862Z,5.60
2018-03-29T00:54:11.869Z,6.20
2018-03-29T00:55:11.837Z,5.80
2018-03-29T00:56:11.824Z,5.50
2018-03-29T00:57:11.819Z,5.80
2018-03-29T00:58:11.803Z,5.90
2018-03-29T00:59:11.789Z,6.00
2018-03-29T01:00:11.781Z,6.00
2018-03-29T01:01:11.769Z,6.20
2018-03-29T01:02:11.753Z,5.80
2018-03-29T01:03:11.742Z,6.40
2018-03-29T01:04:11.734Z,5.90
2018-03-29T01:05:11.722Z,6.10
2018-03-29T01:06:11.712Z,6.20
2018-03-29T01:07:11.700Z,5.90
2018-03-29T01:08:11.687Z,6.30
2018-03-29T01:09:11.677Z,6.60
2018-03-29T01:10:11.666Z,6.30
2018-03-29T01:11:11.657Z,6.10
2018-03-29T01:12:11.645Z,6.50
2018-03-29T01:13:11.631Z,6.00
2018-03-29T01:14:11.618Z,5.90
2018-03-29T01:15:11.607Z,6.30
2018-03-29T01:16:11.595Z,6.00
2018-03-29T01:17:11.586Z,6.40
2018-03-29T01:18:11.577Z,6.30
2018-03-29T01:19:11.570Z,6.40
2018-03-29T01:20:11.553Z,6.00
2018-03-29T01:21:11.538Z,6.40
2018-03-29T01:22:11.529Z,6.60
2018-03-29T01:23:11.519Z,5.90
2018-03-29T01:24:11.509Z,5.90
2018-03-29T01:25:11.498Z,6.40
2018-03-29T01:26:11.488Z,6.70
2018-03-29T01:27:11.474Z,6.30
2018-03-29T01:28:11.462Z,6.40
2018-03-29T01:29:11.450Z,6.80
2018-03-29T01:30:11.479Z,6.60
2018-03-29T01:31:11.427Z,6.80
2018-03-29T01:32:11.419Z,6.50
2018-03-29T01:33:11.411Z,6.80
2018-03-29T01:34:11.393Z,6.80
2018-03-29T01:35:11.380Z,7.60
2018-03-29T01:36:11.372Z,7.20
2018-03-29T01:37:11.363Z,6.90
2018-03-29T01:38:11.354Z,6.70
2018-03-29T01:39:11.340Z,7.00
2018-03-29T01:40:11.329Z,6.50
2018-03-29T01:41:11.313Z,7.20
2018-03-29T01:42:11.305Z,6.70
2018-03-29T01:43:11.289Z,6.70
2018-03-29T01:44:11.282Z,7.50
2018-03-29T01:45:11.273Z,7.20
2018-03-29T01:46:26.017Z,7.80
2018-03-29T01:47:11.247Z,7.80
2018-03-29T01:48:11.232Z,7.40
2018-03-29T01:49:11.237Z,8.20
2018-03-29T01:50:11.215Z,8.40
2018-03-29T01:51:11.201Z,7.90
2018-03-29T01:52:11.191Z,8.40
2018-03-29T01:53:11.182Z,8.60
2018-03-29T01:54:11.167Z,8.70
2018-03-29T01:55:11.159Z,9.00
2018-03-29T01:56:11.148Z,9.10
2018-03-29T01:57:11.144Z,9.40
2018-03-29T01:58:11.123Z,9.40
2018-03-29T01:59:11.113Z,9.40
2018-03-29T02:00:11.101Z,9.30
2018-03-29T02:01:11.089Z,9.90
2018-03-29T02:02:11.076Z,9.70
2018-03-29T02:03:11.063Z,9.70
2018-03-29T02:04:11.054Z,10.10
2018-03-29T02:05:11.047Z,10.50
2018-03-29T02:06:11.035Z,10.40
2018-03-29T02:07:11.024Z,11.00
2018-03-29T02:08:11.038Z,10.30
2018-03-29T02:09:11.025Z,10.40
2018-03-29T02:10:11.010Z,10.80
2018-03-29T02:11:10.980Z,10.70
2018-03-29T02:12:10.966Z,10.60
2018-03-29T02:13:10.955Z,10.40
2018-03-29T02:14:10.939Z,10.40
2018-03-29T02:15:10.927Z,10.60
2018-03-29T02:16:10.916Z,11.20
2018-03-29T02:17:10.908Z,11.40
2018-03-29T02:18:10.898Z,11.40
2018-03-29T02:19:10.887Z,11.10
2018-03-29T02:20:10.877Z,11.40
2018-03-29T02:21:10.868Z,11.10
2018-03-29T02:22:10.848Z,10.60
2018-03-29T02:23:10.848Z,10.50
2018-03-29T02:24:10.827Z,10.90
2018-03-29T02:25:10.826Z,10.30
2018-03-29T02:26:10.809Z,10.40
2018-03-29T02:27:10.844Z,11.70
2018-03-29T02:28:10.779Z,10.70
2018-03-29T02:29:10.770Z,10.70
2018-03-29T02:30:10.770Z,10.50
2018-03-29T02:31:10.751Z,11.30
2018-03-29T02:32:10.745Z,10.90
2018-03-29T02:33:10.752Z,10.60
2018-03-29T02:34:10.718Z,10.70
2018-03-29T02:35:10.705Z,10.90
2018-03-29T02:36:10.692Z,11.30
2018-03-29T02:37:10.684Z,11.30
2018-03-29T02:38:10.672Z,11.30
2018-03-29T02:39:10.661Z,10.60
2018-03-29T02:40:10.652Z,10.40
2018-03-29T02:41:10.639Z,11.10
2018-03-29T02:42:10.623Z,11.00
2018-03-29T02:43:10.611Z,11.30
2018-03-29T02:44:10.606Z,10.30
2018-03-29T02:45:10.596Z,11.00
2018-03-29T02:46:10.584Z,10.60
2018-03-29T02:47:10.647Z,10.90
2018-03-29T02:48:10.569Z,10.60
2018-03-29T02:49:10.544Z,10.40
2018-03-29T02:50:10.534Z,11.50
2018-03-29T02:51:10.523Z,10.80
2018-03-29T02:52:10.511Z,10.50
2018-03-29T02:53:10.506Z,11.10
2018-03-29T02:54:10.504Z,11.30
2018-03-29T02:55:10.537Z,10.30
2018-03-29T02:56:10.475Z,10.70
2018-03-29T02:57:10.458Z,11.40
2018-03-29T02:58:10.495Z,10.80
2018-03-29T02:59:10.432Z,11.30
2018-03-29T03:00:10.419Z,11.30
2018-03-29T03:01:10.410Z,10.60
2018-03-29T03:02:10.402Z,11.40
2018-03-29T03:03:10.399Z,12.30
2018-03-29T03:04:10.380Z,10.90
2018-03-29T03:05:10.361Z,11.20
2018-03-29T03:06:10.356Z,10.90
2018-03-29T03:07:10.343Z,11.30
2018-03-29T03:08:10.332Z,11.50
2018-03-29T03:09:10.321Z,11.90
2018-03-29T03:10:10.307Z,11.70
2018-03-29T03:11:10.298Z,10.90
2018-03-29T03:12:10.282Z,11.70
2018-03-29T03:13:10.275Z,11.40
2018-03-29T03:14:10.263Z,11.50
2018-03-29T03:15:10.253Z,11.90
2018-03-29T03:16:10.240Z,11.00
2018-03-29T03:17:10.232Z,11.80
2018-03-29T03:18:10.218Z,11.30
2018-03-29T03:19:10.208Z,10.90
2018-03-29T03:20:10.195Z,11.50
2018-03-29T03:21:10.184Z,11.20
2018-03-29T03:22:10.197Z,10.90
2018-03-29T03:23:10.160Z,11.20
2018-03-29T03:24:10.149Z,10.70
2018-03-29T03:25:10.137Z,10.40
2018-03-29T03:26:10.126Z,10.50
2018-03-29T03:27:10.113Z,11.30
2018-03-29T03:28:10.110Z,11.00
2018-03-29T03:29:10.093Z,10.50
2018-03-29T03:30:10.085Z,10.50
2018-03-29T03:31:10.070Z,10.60
2018-03-29T03:32:10.061Z,10.60
2018-03-29T03:33:10.045Z,11.20
2018-03-29T03:34:10.039Z,10.20
2018-03-29T03:35:10.026Z,11.00
2018-03-29T03:36:10.013Z,10.50
2018-03-29T03:37:09.997Z,10.20
2018-03-29T03:38:09.995Z,9.90
2018-03-29T03:39:09.974Z,9.90
2018-03-29T03:40:09.964Z,9.50
2018-03-29T03:41:09.956Z,9.70
2018-03-29T03:42:09.945Z,10.10
2018-03-29T03:43:09.934Z,9.70
2018-03-29T03:44:09.919Z,10.30
2018-03-29T03:45:09.911Z,10.30
2018-03-29T03:46:09.899Z,10.40
2018-03-29T03:47:09.885Z,10.60
2018-03-29T03:48:09.877Z,10.80
2018-03-29T03:49:09.866Z,11.10
2018-03-29T03:50:09.860Z,10.80
2018-03-29T03:51:09.843Z,10.40
2018-03-29T03:52:09.831Z,10.30
2018-03-29T03:53:09.818Z,11.20
2018-03-29T03:54:09.807Z,11.60
2018-03-29T03:55:09.800Z,10.80
2018-03-29T03:56:09.784Z,12.00
2018-03-29T03:57:09.773Z,11.00
2018-03-29T03:58:09.766Z,12.30
2018-03-29T03:59:09.748Z,11.20
2018-03-29T04:00:09.736Z,12.00
2018-03-29T04:01:09.733Z,12.30
2018-03-29T04:02:09.721Z,11.90
2018-03-29T04:03:09.706Z,12.20
2018-03-29T04:04:09.697Z,12.10
2018-03-29T04:05:09.684Z,11.70
2018-03-29T04:06:09.673Z,12.50
2018-03-29T04:07:09.659Z,12.70
2018-03-29T04:08:09.648Z,13.00
2018-03-29T04:09:09.639Z,12.90
2018-03-29T04:10:09.631Z,12.10
2018-03-29T04:11:09.618Z,11.60
2018-03-29T04:12:09.613Z,11.90
2018-03-29T04:13:09.595Z,12.00
2018-03-29T04:14:09.594Z,12.20
2018-03-29T04:15:09.572Z,12.10
2018-03-29T04:16:09.560Z,11.60
2018-03-29T04:17:09.555Z,11.20
2018-03-29T04:18:09.539Z,12.00
2018-03-29T04:19:09.527Z,12.20
2018-03-29T04:20:09.515Z,11.50
2018-03-29T04:21:09.506Z,11.40
2018-03-29T04:22:09.491Z,11.30
2018-03-29T04:23:09.484Z,11.80
2018-03-29T04:24:09.470Z,11.20
2018-03-29T04:25:09.459Z,12.10
2018-03-29T04:26:09.447Z,12.30
2018-03-29T04:27:09.433Z,11.60
2018-03-29T04:28:09.422Z,12.40
2018-03-29T04:29:09.415Z,11.80
2018-03-29T04:30:09.408Z,11.60
2018-03-29T04:31:09.391Z,11.50
2018-03-29T04:32:09.380Z,12.20
2018-03-29T04:33:09.370Z,12.10
2018-03-29T04:34:09.356Z,12.20
2018-03-29T04:35:09.346Z,11.70
2018-03-29T04:36:09.337Z,12.60
2018-03-29T04:37:09.326Z,12.30
2018-03-29T04:38:09.312Z,12.30
2018-03-29T04:39:09.302Z,12.20
2018-03-29T04:40:09.296Z,12.80
2018-03-29T04:41:09.277Z,12.60
2018-03-29T04:42:09.272Z,12.50
2018-03-29T04:43:09.258Z,13.00
2018-03-29T04:44:09.246Z,12.80
2018-03-29T04:45:09.238Z,12.70
2018-03-29T04:46:09.225Z,12.80
2018-03-29T04:47:09.208Z,12.50
2018-03-29T04:48:09.199Z,12.20
2018-03-29T04:49:09.231Z,13.20
2018-03-29T04:50:09.180Z,12.90
2018-03-29T04:51:09.171Z,13.20
2018-03-29T04:52:09.156Z,12.80
2018-03-29T04:53:09.146Z,12.40
2018-03-29T04:54:09.132Z,13.30
2018-03-29T04:55:09.119Z,13.10
2018-03-29T04:56:09.108Z,13.70
2018-03-29T04:57:09.102Z,13.30
2018-03-29T04:58:09.089Z,13.70
2018-03-29T04:59:09.071Z,13.90
2018-03-29T05:00:09.065Z,13.90
2018-03-29T05:01:09.058Z,13.10
2018-03-29T05:02:09.048Z,14.30
2018-03-29T05:03:09.029Z,13.80
2018-03-29T05:04:09.022Z,14.80
2018-03-29T05:05:09.011Z,13.60
2018-03-29T05:06:09.001Z,13.60
2018-03-29T05:07:08.989Z,13.30
2018-03-29T05:08:08.973Z,14.10
2018-03-29T05:09:08.964Z,13.40
2018-03-29T05:10:08.954Z,13.20
2018-03-29T05:11:08.944Z,13.70
2018-03-29T05:12:08.928Z,14.30
2018-03-29T05:13:08.929Z,14.10
2018-03-29T05:14:08.920Z,14.60
2018-03-29T05:15:08.895Z,14.20
2018-03-29T05:16:08.886Z,14.60
2018-03-29T05:17:08.872Z,14.60
2018-03-29T05:18:08.869Z,14.10
2018-03-29T05:19:08.850Z,14.90
2018-03-29T05:20:08.846Z,14.60
2018-03-29T05:21:08.825Z,14.80
2018-03-29T05:22:08.816Z,14.50
2018-03-29T05:23:08.805Z,15.30
2018-03-29T05:24:08.798Z,15.40
2018-03-29T05:25:08.787Z,15.10
2018-03-29T05:26:08.775Z,15.20
2018-03-29T05:27:08.764Z,15.40
2018-03-29T05:28:08.748Z,15.30
2018-03-29T05:29:08.740Z,15.70
2018-03-29T05:30:08.727Z,15.70
2018-03-29T05:31:08.720Z,16.00
2018-03-29T05:32:08.716Z,16.60
2018-03-29T05:33:08.696Z,15.80
2018-03-29T05:34:08.688Z,15.30
2018-03-29T05:35:08.674Z,16.60
2018-03-29T05:36:08.660Z,15.60
2018-03-29T05:37:08.649Z,15.90
2018-03-29T05:38:08.639Z,16.10
2018-03-29T05:39:08.630Z,16.90
2018-03-29T05:40:08.634Z,16.20
2018-03-29T05:41:08.611Z,17.20
2018-03-29T05:42:08.594Z,16.80
2018-03-29T05:43:08.583Z,17.70
2018-03-29T05:44:08.575Z,16.80
2018-03-29T05:45:08.615Z,16.90
2018-03-29T05:46:08.554Z,18.70
2018-03-29T05:47:08.542Z,18.90
2018-03-29T05:48:08.528Z,17.70
2018-03-29T05:49:08.516Z,18.50
2018-03-29T05:50:08.526Z,18.10
2018-03-29T05:51:08.495Z,19.40
2018-03-29T05:52:08.487Z,26.50
2018-03-29T05:53:08.477Z,56.00
2018-03-29T05:54:08.464Z,25.40
2018-03-29T05:55:08.448Z,21.90
2018-03-29T05:56:08.436Z,25.50
2018-03-29T05:57:08.428Z,24.60
2018-03-29T05:58:08.421Z,21.50
2018-03-29T05:59:08.410Z,22.00
2018-03-29T06:00:08.399Z,21.60
2018-03-29T06:01:08.382Z,26.60
2018-03-29T06:02:08.371Z,27.40
2018-03-29T06:03:08.414Z,39.90
2018-03-29T06:04:08.350Z,78.90
2018-03-29T06:05:08.343Z,41.80
2018-03-29T06:06:08.328Z,43.90
2018-03-29T06:07:08.319Z,53.60
2018-03-29T06:08:08.312Z,27.20
2018-03-29T06:09:08.298Z,52.80
2018-03-29T06:10:08.295Z,47.10
2018-03-29T06:11:08.273Z,52.40
2018-03-29T06:12:08.261Z,41.00
2018-03-29T06:13:08.254Z,37.10
2018-03-29T06:14:08.246Z,33.00
2018-03-29T06:15:08.232Z,28.90
2018-03-29T06:16:08.223Z,26.80
2018-03-29T06:17:08.206Z,27.20
2018-03-29T06:18:08.195Z,27.50
2018-03-29T06:19:08.189Z,26.70
2018-03-29T06:20:08.176Z,26.20
2018-03-29T06:21:08.172Z,27.10
2018-03-29T06:22:08.156Z,27.50
2018-03-29T06:23:08.182Z,26.20
2018-03-29T06:24:08.128Z,27.50
2018-03-29T06:25:08.128Z,27.90
2018-03-29T06:26:08.110Z,26.20
2018-03-29T06:27:08.104Z,27.20
2018-03-29T06:28:08.093Z,28.50
2018-03-29T06:29:08.075Z,26.90
2018-03-29T06:30:08.124Z,27.70
2018-03-29T06:31:08.086Z,27.90
2018-03-29T06:32:08.045Z,28.80
2018-03-29T06:33:08.034Z,28.20
2018-03-29T06:34:08.026Z,27.80
2018-03-29T06:35:08.013Z,28.80
2018-03-29T06:36:08.000Z,29.50
2018-03-29T06:37:08.001Z,28.90
2018-03-29T06:38:07.983Z,28.70
2018-03-29T06:39:07.970Z,29.90
2018-03-29T06:40:07.959Z,28.50
2018-03-29T06:41:07.948Z,28.70
2018-03-29T06:42:07.940Z,29.50
2018-03-29T06:43:07.926Z,29.80
2018-03-29T06:44:07.920Z,28.40
2018-03-29T06:45:07.901Z,29.30
2018-03-29T06:46:07.893Z,29.00
2018-03-29T06:47:07.883Z,29.30
2018-03-29T06:48:07.873Z,29.80
2018-03-29T06:49:07.864Z,29.30
2018-03-29T06:50:07.853Z,29.60
2018-03-29T06:51:07.842Z,29.40
2018-03-29T06:52:07.831Z,29.10
2018-03-29T06:53:07.819Z,28.30
2018-03-29T06:54:07.808Z,30.30
2018-03-29T06:55:07.795Z,29.50
2018-03-29T06:56:07.787Z,29.70
2018-03-29T06:57:07.776Z,29.90
2018-03-29T06:58:07.765Z,29.50
2018-03-29T06:59:07.760Z,31.30
2018-03-29T07:00:07.742Z,30.00
2018-03-29T07:01:07.838Z,30.60
2018-03-29T07:02:07.724Z,31.00
2018-03-29T07:03:07.715Z,30.30
2018-03-29T07:04:07.704Z,32.10
2018-03-29T07:05:07.696Z,30.80
2018-03-29T07:06:07.682Z,31.70
2018-03-29T07:07:07.667Z,30.00
2018-03-29T07:08:07.662Z,29.90
2018-03-29T07:09:07.649Z,30.60
2018-03-29T07:10:07.644Z,31.10
2018-03-29T07:11:07.628Z,31.60
2018-03-29T07:12:07.621Z,30.70
2018-03-29T07:13:07.610Z,30.70
2018-03-29T07:14:07.597Z,32.50
2018-03-29T07:15:07.585Z,28.60
2018-03-29T07:16:07.572Z,31.70
2018-03-29T07:17:07.569Z,32.00
2018-03-29T07:18:07.556Z,31.30
2018-03-29T07:19:07.545Z,31.60
2018-03-29T07:20:07.532Z,31.60
2018-03-29T07:21:07.520Z,32.10
2018-03-29T07:22:07.513Z,30.30
2018-03-29T07:23:07.498Z,31.70
2018-03-29T07:24:07.493Z,32.20
2018-03-29T07:25:07.480Z,32.50
2018-03-29T07:26:07.472Z,32.40
2018-03-29T07:27:07.460Z,33.20
2018-03-29T07:28:07.455Z,32.70
2018-03-29T07:29:07.435Z,32.70
2018-03-29T07:30:07.426Z,33.00
2018-03-29T07:31:07.418Z,33.10
2018-03-29T07:32:07.406Z,32.60
2018-03-29T07:33:07.400Z,32.70
2018-03-29T07:34:07.386Z,32.00
2018-03-29T07:35:07.375Z,32.90
2018-03-29T07:36:07.361Z,31.90
2018-03-29T07:37:07.364Z,33.10
2018-03-29T07:38:07.340Z,31.60
2018-03-29T07:39:07.334Z,30.00
2018-03-29T07:40:07.320Z,31.50
2018-03-29T07:41:07.311Z,32.80
2018-03-29T07:42:07.298Z,31.70
2018-03-29T07:43:07.288Z,32.80
2018-03-29T07:44:07.278Z,31.70
2018-03-29T07:45:07.270Z,31.50
2018-03-29T07:46:07.261Z,32.60
2018-03-29T07:47:07.301Z,32.90
2018-03-29T07:48:07.240Z,30.90
2018-03-29T07:49:07.224Z,31.10
2018-03-29T07:50:07.223Z,31.40
2018-03-29T07:51:07.205Z,30.10
2018-03-29T07:52:07.196Z,31.30
2018-03-29T07:53:07.203Z,31.80
2018-03-29T07:54:07.200Z,33.30
2018-03-29T07:55:07.164Z,31.90
2018-03-29T07:56:07.158Z,30.60
2018-03-29T07:57:07.141Z,31.90
2018-03-29T07:58:07.132Z,31.70
2018-03-29T07:59:07.126Z,30.00
2018-03-29T08:00:07.112Z,30.80
2018-03-29T08:01:07.100Z,29.70
2018-03-29T08:02:07.091Z,30.40
2018-03-29T08:03:07.082Z,30.30
2018-03-29T08:04:07.074Z,29.20
2018-03-29T08:05:07.065Z,29.60
2018-03-29T08:06:07.054Z,30.00
2018-03-29T08:07:07.044Z,30.40
2018-03-29T08:08:07.039Z,29.40
2018-03-29T08:09:07.027Z,30.90
2018-03-29T08:10:07.016Z,30.10
2018-03-29T08:11:07.004Z,29.80
2018-03-29T08:12:06.995Z,30.10
2018-03-29T08:13:06.980Z,29.30
2018-03-29T08:14:06.978Z,28.10
2018-03-29T08:15:06.965Z,30.10
2018-03-29T08:16:06.952Z,27.90
2018-03-29T08:17:06.941Z,27.50
2018-03-29T08:18:06.933Z,28.30
2018-03-29T08:19:06.925Z,29.00
2018-03-29T08:20:06.913Z,28.40
2018-03-29T08:21:06.906Z,28.30
2018-03-29T08:22:06.896Z,27.70
2018-03-29T08:23:06.887Z,27.00
2018-03-29T08:24:06.879Z,26.70
2018-03-29T08:25:06.867Z,27.30
2018-03-29T08:26:06.861Z,28.30
2018-03-29T08:27:06.851Z,29.30
2018-03-29T08:28:06.840Z,27.80
2018-03-29T08:29:06.829Z,28.10
2018-03-29T08:30:06.824Z,27.20
2018-03-29T08:31:06.811Z,26.50
2018-03-29T08:32:06.803Z,27.00
2018-03-29T08:33:06.814Z,28.50
2018-03-29T08:34:06.781Z,26.90
2018-03-29T08:35:06.775Z,26.60
2018-03-29T08:36:06.764Z,26.00
2018-03-29T08:37:06.752Z,26.10
2018-03-29T08:38:06.746Z,25.70
2018-03-29T08:39:06.736Z,26.70
2018-03-29T08:40:06.724Z,26.70
2018-03-29T08:41:06.721Z,26.50
2018-03-29T08:42:06.707Z,27.20
2018-03-29T08:43:06.698Z,27.60
2018-03-29T08:44:06.689Z,27.30
2018-03-29T08:45:06.681Z,26.30
2018-03-29T08:46:06.673Z,26.70
2018-03-29T08:47:06.661Z,27.40
2018-03-29T08:48:06.683Z,27.60
2018-03-29T08:49:06.638Z,26.30
2018-03-29T08:50:06.628Z,27.30
2018-03-29T08:51:06.620Z,28.40
2018-03-29T08:52:06.612Z,26.60
2018-03-29T08:53:06.608Z,27.90
2018-03-29T08:54:06.596Z,27.60
2018-03-29T08:55:06.582Z,27.40
2018-03-29T08:56:06.571Z,29.40
2018-03-29T08:57:06.560Z,28.20
2018-03-29T08:58:06.557Z,27.00
2018-03-29T08:59:06.544Z,28.60
2018-03-29T09:00:06.535Z,28.50
2018-03-29T09:01:06.528Z,28.30
2018-03-29T09:02:06.531Z,28.90
2018-03-29T09:03:06.526Z,28.50
2018-03-29T09:04:06.496Z,28.40
2018-03-29T09:05:06.493Z,27.50
2018-03-29T09:06:06.481Z,28.40
2018-03-29T09:07:06.492Z,27.40
2018-03-29T09:08:06.457Z,27.50
2018-03-29T09:09:06.449Z,29.20
2018-03-29T09:10:06.445Z,27.60
2018-03-29T09:11:06.435Z,28.10
2018-03-29T09:12:06.424Z,28.00
2018-03-29T09:13:06.424Z,28.30
2018-03-29T09:14:06.408Z,28.30
2018-03-29T09:15:06.395Z,29.10
2018-03-29T09:16:06.389Z,28.00
2018-03-29T09:17:06.384Z,28.00
2018-03-29T09:18:06.373Z,28.10
2018-03-29T09:19:06.362Z,28.10
2018-03-29T09:20:06.352Z,27.20
2018-03-29T09:21:06.355Z,28.10
2018-03-29T09:22:06.337Z,26.60
2018-03-29T09:23:06.323Z,28.10
2018-03-29T09:24:06.319Z,27.30
2018-03-29T09:25:06.324Z,26.70
2018-03-29T09:26:06.305Z,29.10
2018-03-29T09:27:06.294Z,26.90
2018-03-29T09:28:06.283Z,26.90
2018-03-29T09:29:06.269Z,27.80
2018-03-29T09:30:06.262Z,27.20
2018-03-29T09:31:06.257Z,27.90
2018-03-29T09:32:06.245Z,28.20
2018-03-29T09:33:06.236Z,27.30
2018-03-29T09:34:06.226Z,27.30
2018-03-29T09:35:06.219Z,27.30
2018-03-29T09:36:06.211Z,26.00
2018-03-29T09:37:06.200Z,28.20
2018-03-29T09:38:06.192Z,27.90
2018-03-29T09:39:06.184Z,26.80
2018-03-29T09:40:06.182Z,27.20
2018-03-29T09:41:06.165Z,27.50
2018-03-29T09:42:06.165Z,26.80
2018-03-29T09:43:06.159Z,27.70
2018-03-29T09:44:06.140Z,27.40
2018-03-29T09:45:06.134Z,26.90
2018-03-29T09:46:06.125Z,26.80
2018-03-29T09:47:06.117Z,26.70
2018-03-29T09:48:06.108Z,28.00
2018-03-29T09:49:06.096Z,27.70
2018-03-29T09:50:06.097Z,27.20
2018-03-29T09:51:06.081Z,27.50
2018-03-29T09:52:06.072Z,27.80
2018-03-29T09:53:06.070Z,27.30
2018-03-29T09:54:06.056Z,26.50
2018-03-29T09:55:06.047Z,28.20
2018-03-29T09:56:06.041Z,26.30
2018-03-29T09:57:06.032Z,28.30
2018-03-29T09:58:06.025Z,26.90
2018-03-29T09:59:06.010Z,25.90
2018-03-29T10:00:06.008Z,26.00
2018-03-29T10:01:05.995Z,27.50
2018-03-29T10:02:05.989Z,28.70
2018-03-29T10:03:05.976Z,26.40
2018-03-29T10:04:05.973Z,26.40
2018-03-29T10:05:05.963Z,25.40
2018-03-29T10:06:05.962Z,28.00
2018-03-29T10:07:05.950Z,28.00
2018-03-29T10:08:05.938Z,27.10
2018-03-29T10:09:05.928Z,26.40
2018-03-29T10:10:05.921Z,27.10
2018-03-29T10:11:05.918Z,26.30
2018-03-29T10:12:05.906Z,26.00
2018-03-29T10:13:05.900Z,25.90
2018-03-29T10:14:05.892Z,26.90
2018-03-29T10:15:05.881Z,25.60
2018-03-29T10:16:05.878Z,26.80
2018-03-29T10:17:05.867Z,26.30
2018-03-29T10:18:05.863Z,26.50
2018-03-29T10:19:05.853Z,26.50
2018-03-29T10:20:05.844Z,25.80
2018-03-29T10:21:05.837Z,27.30
2018-03-29T10:22:05.832Z,25.40
2018-03-29T10:23:05.820Z,25.90
2018-03-29T10:24:05.824Z,25.10
2018-03-29T10:25:05.812Z,25.70
2018-03-29T10:26:05.803Z,25.20
2018-03-29T10:27:05.791Z,24.10
2018-03-29T10:28:05.785Z,24.20
2018-03-29T10:29:05.784Z,26.00
2018-03-29T10:30:05.777Z,25.80
2018-03-29T10:31:05.766Z,25.40
2018-03-29T10:32:05.763Z,25.40
2018-03-29T10:33:05.753Z,26.30
2018-03-29T10:34:05.748Z,25.50
2018-03-29T10:35:05.738Z,25.30
2018-03-29T10:36:05.733Z,24.10
2018-03-29T10:37:05.732Z,25.00
2018-03-29T10:38:05.721Z,24.00
2018-03-29T10:39:05.754Z,24.60
2018-03-29T10:40:05.703Z,25.20
2018-03-29T10:41:05.699Z,25.10
2018-03-29T10:42:05.692Z,24.70
2018-03-29T10:43:05.684Z,24.40
2018-03-29T10:44:05.674Z,24.50
2018-03-29T10:45:05.678Z,26.50
2018-03-29T10:46:05.666Z,25.20
2018-03-29T10:47:05.653Z,25.90
2018-03-29T10:48:05.648Z,25.70
2018-03-29T10:49:05.635Z,25.70
2018-03-29T10:50:05.635Z,26.50
2018-03-29T10:51:05.625Z,26.90
2018-03-29T10:52:05.616Z,26.90
2018-03-29T10:53:05.609Z,27.00
2018-03-29T10:54:05.651Z,26.80
2018-03-29T10:55:05.596Z,26.40
2018-03-29T10:56:05.590Z,28.30
2018-03-29T10:57:05.582Z,26.50
2018-03-29T10:58:05.596Z,27.30
2018-03-29T10:59:05.560Z,26.70
2018-03-29T11:00:05.553Z,26.70
2018-03-29T11:01:05.549Z,27.10
2018-03-29T11:02:05.541Z,27.30
2018-03-29T11:03:05.535Z,27.80
2018-03-29T11:04:05.528Z,28.30
2018-03-29T11:05:05.517Z,28.50
2018-03-29T11:06:05.509Z,27.10
2018-03-29T11:07:05.506Z,27.00
2018-03-29T11:08:05.496Z,26.90
2018-03-29T11:09:05.491Z,27.70
2018-03-29T11:10:05.491Z,26.30
2018-03-29T11:11:05.476Z,25.50
2018-03-29T11:12:05.472Z,26.10
2018-03-29T11:13:05.462Z,26.50
2018-03-29T11:14:05.457Z,24.60
2018-03-29T11:15:05.447Z,25.90
2018-03-29T11:16:05.442Z,26.30
2018-03-29T11:17:05.438Z,25.40
2018-03-29T11:18:05.432Z,26.00
2018-03-29T11:19:05.423Z,25.80
2018-03-29T11:20:05.440Z,26.50
2018-03-29T11:21:05.410Z,25.60
2018-03-29T11:22:05.403Z,26.20
2018-03-29T11:23:05.402Z,25.80
2018-03-29T11:24:05.398Z,25.10
2018-03-29T11:25:05.446Z,24.80
2018-03-29T11:26:05.386Z,25.40
2018-03-29T11:27:05.378Z,24.30
2018-03-29T11:28:05.370Z,23.40
2018-03-29T11:29:05.368Z,24.30
2018-03-29T11:30:05.370Z,23.80
2018-03-29T11:31:05.358Z,24.00
2018-03-29T11:32:05.354Z,24.30
2018-03-29T11:33:05.344Z,24.20
2018-03-29T11:34:05.341Z,24.00
2018-03-29T11:35:05.336Z,24.80
2018-03-29T11:36:05.354Z,23.00
2018-03-29T11:37:05.333Z,23.80
2018-03-29T11:38:05.323Z,23.50
2018-03-29T11:39:05.312Z,23.10
2018-03-29T11:40:05.311Z,21.50
2018-03-29T11:41:05.304Z,22.20
2018-03-29T11:42:05.301Z,21.40
2018-03-29T11:43:05.299Z,22.70
2018-03-29T11:44:05.303Z,22.30
2018-03-29T11:45:05.294Z,23.30
2018-03-29T11:46:05.283Z,22.50
2018-03-29T11:47:05.281Z,21.80
2018-03-29T11:48:05.280Z,21.30
2018-03-29T11:49:05.280Z,22.10
2018-03-29T11:50:05.281Z,21.90
2018-03-29T11:51:05.275Z,22.30
2018-03-29T11:52:05.280Z,21.20
2018-03-29T11:53:05.270Z,22.70
2018-03-29T11:54:05.267Z,22.90
2018-03-29T11:55:05.262Z,23.50
2018-03-29T11:56:05.268Z,23.60
2018-03-29T11:57:05.264Z,23.20
2018-03-29T11:58:05.261Z,23.20
2018-03-29T11:59:05.259Z,24.10
2018-03-29T12:00:05.262Z,21.70
2018-03-29T12:01:05.255Z,22.40
2018-03-29T12:02:05.256Z,22.40
2018-03-29T12:03:05.256Z,21.80
2018-03-29T12:04:05.260Z,21.70
2018-03-29T12:05:05.312Z,21.20
2018-03-29T12:06:05.253Z,22.30
2018-03-29T12:07:05.254Z,21.30
2018-03-29T12:08:05.255Z,20.20
2018-03-29T12:09:05.254Z,20.40
2018-03-29T12:10:05.261Z,20.00
2018-03-29T12:11:05.254Z,19.80
2018-03-29T12:12:05.253Z,20.00
2018-03-29T12:13:05.257Z,20.40
2018-03-29T12:14:05.258Z,20.50
2018-03-29T12:15:05.264Z,21.00
2018-03-29T12:16:05.264Z,19.70
2018-03-29T12:17:05.260Z,19.00
2018-03-29T12:18:05.276Z,18.90
2018-03-29T12:19:05.261Z,18.50
2018-03-29T12:20:05.260Z,18.10
2018-03-29T12:21:05.265Z,18.90
2018-03-29T12:22:05.269Z,18.60
2018-03-29T12:23:05.267Z,18.40
2018-03-29T12:24:05.265Z,18.60
2018-03-29T12:25:05.324Z,19.20
2018-03-29T12:26:05.266Z,18.30
2018-03-29T12:27:05.271Z,18.20
2018-03-29T12:28:05.271Z,16.90
2018-03-29T12:29:05.272Z,17.60
2018-03-29T12:30:05.277Z,17.30
2018-03-29T12:31:05.274Z,17.30
2018-03-29T12:32:05.278Z,16.80
2018-03-29T12:33:05.282Z,17.30
2018-03-29T12:34:05.284Z,16.10
2018-03-29T12:35:05.281Z,17.00
2018-03-29T12:36:05.286Z,16.20
2018-03-29T12:37:05.288Z,17.10
2018-03-29T12:38:05.287Z,17.10
2018-03-29T12:39:05.290Z,17.40
2018-03-29T12:40:05.288Z,16.90
2018-03-29T12:41:05.291Z,17.10
2018-03-29T12:42:05.296Z,16.30
2018-03-29T12:43:05.298Z,17.30
2018-03-29T12:44:05.295Z,16.10
2018-03-29T12:45:05.353Z,17.00
2018-03-29T12:46:05.297Z,16.50
2018-03-29T12:47:05.296Z,15.70
2018-03-29T12:48:05.316Z,15.90
2018-03-29T12:49:05.306Z,15.70
2018-03-29T12:50:05.298Z,15.50
2018-03-29T12:51:05.360Z,15.90
2018-03-29T12:52:05.297Z,15.90
2018-03-29T12:53:05.295Z,15.50
2018-03-29T12:54:05.302Z,16.70
2018-03-29T12:55:05.298Z,15.90
2018-03-29T12:56:05.293Z,16.00